Time;durP1;ratioP1;P1;durP2;ratioP2;P2;SDS_P1;SDS_P2;PMS_P1;PMS_P2;Temp;Humidity;BMP_temperature;BMP_pressure;BME280_temperature;BME280_humidity;BME280_pressure;Samples;Min_cycle;Max_cycle;Signal;HPM_P1;HPM_P2
2022/11/23 00:00:30;;;;;;;19.17;17.52;;;;;;;10.55;63.50;99431.69;4974826;28;20512;-76
2022/11/23 00:02:56;;;;;;;19.48;18.17;;;;;;;10.56;63.21;99435.22;4973651;28;20360;-77
2022/11/23 00:05:22;;;;;;;18.75;17.50;;;;;;;10.57;63.30;99436.81;4989559;28;20035;-77
2022/11/23 00:07:48;;;;;;;19.38;17.80;;;;;;;10.56;63.53;99441.41;4974892;28;20027;-76
2022/11/23 00:10:13;;;;;;;18.77;17.65;;;;;;;10.56;63.37;99444.13;4973467;28;20039;-76
2022/11/23 00:12:39;;;;;;;19.55;18.27;;;;;;;10.57;63.60;99445.72;4973204;28;20090;-77
2022/11/23 00:15:05;;;;;;;18.35;17.13;;;;;;;10.57;63.36;99443.03;4974576;28;20035;-77
2022/11/23 00:17:31;;;;;;;18.95;17.60;;;;;;;10.57;63.45;99440.31;4974599;28;20034;-76
2022/11/23 00:19:57;;;;;;;20.02;18.70;;;;;;;10.58;63.29;99446.53;4973203;28;20038;-77
2022/11/23 00:22:22;;;;;;;19.23;17.90;;;;;;;10.59;63.64;99450.84;4989461;28;20027;-77
2022/11/23 00:24:47;;;;;;;21.35;19.88;;;;;;;10.59;63.55;99453.56;4974075;28;20399;-76
2022/11/23 00:27:13;;;;;;;19.10;18.00;;;;;;;10.59;63.48;99454.34;4989510;28;20041;-76
2022/11/23 00:29:38;;;;;;;19.65;17.98;;;;;;;10.60;63.34;99455.16;4973209;28;20031;-76
2022/11/23 00:32:04;;;;;;;19.00;17.77;;;;;;;10.59;63.48;99456.25;4973347;28;20026;-77
2022/11/23 00:34:29;;;;;;;19.40;17.90;;;;;;;10.60;63.50;99457.88;4974431;28;20056;-77
2022/11/23 00:36:54;;;;;;;20.30;18.90;;;;;;;10.60;63.47;99455.97;4974140;28;20046;-77
2022/11/23 00:39:20;;;;;;;18.85;17.27;;;;;;;10.61;63.29;99459.50;4973029;28;20478;-76
2022/11/23 00:41:45;;;;;;;19.20;17.80;;;;;;;10.61;63.49;99454.09;4989306;28;20113;-76
2022/11/23 00:44:10;;;;;;;19.42;17.98;;;;;;;10.61;63.23;99457.59;4989647;28;20094;-77
2022/11/23 00:46:36;;;;;;;18.48;17.40;;;;;;;10.62;63.24;99461.09;4974633;28;20035;-76
2022/11/23 00:49:01;;;;;;;19.77;18.48;;;;;;;10.62;63.45;99461.09;4975594;28;20089;-77
2022/11/23 00:51:32;;;;;;;19.33;17.73;;;;;;;10.62;63.70;99453.00;4978753;28;20440;-77
2022/11/23 00:53:59;;;;;;;20.17;18.73;;;;;;;10.63;63.64;99453.81;4993126;28;20023;-76
2022/11/23 00:56:26;;;;;;;19.55;18.10;;;;;;;10.62;63.55;99455.69;4978057;28;20038;-76
2022/11/23 00:58:53;;;;;;;21.25;19.30;;;;;;;10.63;63.57;99457.31;4977803;28;20375;-76
2022/11/23 01:01:22;;;;;;;19.73;18.45;;;;;;;10.64;63.62;99463.53;4978542;28;20034;-76
2022/11/23 01:03:50;;;;;;;19.45;18.25;;;;;;;10.64;63.66;99460.84;4976882;28;20029;-76
2022/11/23 01:06:21;;;;;;;18.33;17.33;;;;;;;10.64;63.27;99463.53;4977876;28;20031;-76
2022/11/23 01:08:58;;;;;;;18.95;17.85;;;;;;;10.64;63.57;99461.66;4977918;28;20383;-76
2022/11/23 01:11:26;;;;;;;18.67;17.52;;;;;;;10.64;63.49;99461.66;4976992;28;20030;-76
2022/11/23 01:13:51;;;;;;;20.10;18.48;;;;;;;10.64;63.71;99456.25;4992764;28;20027;-76
2022/11/23 01:16:20;;;;;;;18.80;17.70;;;;;;;10.64;63.41;99458.94;4992787;28;20100;-76
2022/11/23 01:18:45;;;;;;;19.15;17.95;;;;;;;10.65;63.54;99470.56;4977526;28;20022;-77
2022/11/23 01:21:11;;;;;;;19.48;17.98;;;;;;;10.66;63.56;99472.97;4977733;28;20049;-77
2022/11/23 01:23:36;;;;;;;18.27;17.15;;;;;;;10.66;63.50;99469.44;4993204;28;20033;-76
2022/11/23 01:26:09;;;;;;;20.58;18.90;;;;;;;10.66;63.81;99482.97;4977508;28;20058;-77
2022/11/23 01:28:36;;;;;;;18.75;17.27;;;;;;;10.66;63.56;99478.38;4977159;28;20382;-77
2022/11/23 01:31:20;;;;;;;20.40;18.98;;;;;;;10.67;63.58;99481.88;4977515;28;20027;-77
2022/11/23 01:33:46;;;;;;;18.40;17.15;;;;;;;10.66;63.38;99482.97;4977237;28;20469;-77
2022/11/23 01:36:12;;;;;;;18.88;17.67;;;;;;;10.66;63.51;99472.97;4976210;28;20031;-77
2022/11/23 01:38:39;;;;;;;18.65;17.30;;;;;;;10.67;63.66;99481.88;4977143;28;20049;-77
2022/11/23 01:41:06;;;;;;;20.73;19.15;;;;;;;10.67;63.70;99484.59;4992542;28;20047;-77
2022/11/23 01:43:31;;;;;;;17.77;16.67;;;;;;;10.67;63.30;99490.78;4977615;28;20031;-77
2022/11/23 01:45:59;;;;;;;18.38;17.17;;;;;;;10.68;63.70;99486.19;4977833;28;20035;-76
2022/11/23 01:48:30;;;;;;;18.73;17.52;;;;;;;10.67;63.66;99488.09;4976091;28;20058;-77
2022/11/23 01:50:58;;;;;;;19.65;18.13;;;;;;;10.69;63.38;99495.94;4992607;28;20447;-76
2022/11/23 01:53:24;;;;;;;18.75;17.70;;;;;;;10.69;63.36;99494.03;4975864;28;20026;-76
2022/11/23 01:55:51;;;;;;;17.95;16.98;;;;;;;10.68;63.53;99489.69;4977363;28;20038;-76
2022/11/23 01:58:21;;;;;;;20.13;18.38;;;;;;;10.68;63.34;99492.41;4976707;28;20062;-75
2022/11/23 02:00:48;;;;;;;18.85;17.50;;;;;;;10.70;63.72;99492.13;4976540;28;20019;-76
2022/11/23 02:03:14;;;;;;;18.17;16.85;;;;;;;10.70;63.74;99492.13;4975836;28;20523;-76
2022/11/23 02:05:45;;;;;;;19.80;18.38;;;;;;;10.69;63.42;99499.44;4977392;28;20110;-76
2022/11/23 02:08:12;;;;;;;20.13;18.65;;;;;;;10.70;63.51;99498.34;4976883;28;20533;-76
2022/11/23 02:10:37;;;;;;;19.55;17.98;;;;;;;10.71;63.52;99501.84;4975805;28;20034;-76
2022/11/23 02:13:06;;;;;;;20.27;19.08;;;;;;;10.71;63.77;99491.03;4991674;28;20039;-76
2022/11/23 02:15:34;;;;;;;18.90;17.70;;;;;;;10.72;63.43;99488.06;4976849;28;20023;-76
2022/11/23 02:18:02;;;;;;;19.17;17.98;;;;;;;10.71;63.70;99494.56;4976426;28;20415;-76
2022/11/23 02:20:27;;;;;;;19.25;17.90;;;;;;;10.72;63.73;99498.09;4976946;28;20030;-77
2022/11/23 02:23:08;;;;;;;19.20;17.90;;;;;;;10.72;63.59;99500.78;4975206;28;20027;-77
2022/11/23 02:25:50;;;;;;;19.35;18.15;;;;;;;10.72;63.49;99498.88;4975543;28;20347;-76
2022/11/23 02:28:25;;;;;;;20.60;19.30;;;;;;;10.72;63.80;99501.59;4991753;28;20035;-76
2022/11/23 02:30:53;;;;;;;19.80;18.65;;;;;;;10.73;63.64;99505.88;4977276;28;20463;-76
2022/11/23 02:33:18;;;;;;;18.33;16.95;;;;;;;10.73;63.71;99505.09;4976432;28;20471;-78
2022/11/23 02:35:52;;;;;;;20.25;18.90;;;;;;;10.73;63.35;99510.50;4975293;28;20041;-76
2022/11/23 02:38:18;;;;;;;20.08;18.98;;;;;;;10.73;63.56;99505.88;4976335;28;20026;-75
2022/11/23 02:40:44;;;;;;;21.08;19.88;;;;;;;10.73;63.91;99511.28;4974794;28;20364;-75
2022/11/23 02:43:09;;;;;;;20.65;19.13;;;;;;;10.74;63.68;99517.53;4976217;28;20157;-78
2022/11/23 02:45:39;;;;;;;21.38;19.92;;;;;;;10.73;63.63;99503.19;4991647;28;20034;-77
2022/11/23 02:48:05;;;;;;;20.88;19.30;;;;;;;10.74;63.64;99512.13;4975038;28;20507;-77
2022/11/23 02:50:31;;;;;;;19.90;18.25;;;;;;;10.74;63.65;99515.63;4974902;28;20035;-78
2022/11/23 02:52:56;;;;;;;19.70;18.42;;;;;;;10.74;63.66;99507.53;4974887;28;20023;-78
2022/11/23 02:55:22;;;;;;;20.23;18.85;;;;;;;10.75;63.72;99519.13;4975986;28;20022;-76
2022/11/23 02:57:47;;;;;;;18.98;17.88;;;;;;;10.75;63.53;99513.72;4974831;28;20035;-77
2022/11/23 03:00:13;;;;;;;19.48;18.27;;;;;;;10.75;63.86;99522.63;4974705;28;20027;-78
2022/11/23 03:02:39;;;;;;;20.17;18.63;;;;;;;10.75;63.63;99517.22;4975875;28;20465;-78
2022/11/23 03:05:05;;;;;;;21.23;19.73;;;;;;;10.77;63.53;99525.06;4974637;28;20121;-77
2022/11/23 03:07:30;;;;;;;20.65;18.73;;;;;;;10.76;63.80;99520.75;4991364;28;20086;-77
2022/11/23 03:09:56;;;;;;;20.27;18.98;;;;;;;10.76;63.73;99516.16;4975522;28;20081;-78
2022/11/23 03:12:21;;;;;;;19.02;17.73;;;;;;;10.76;63.70;99521.56;4975199;28;20034;-78
2022/11/23 03:14:46;;;;;;;19.08;17.98;;;;;;;10.77;63.70;99525.88;4975443;28;20053;-78
2022/11/23 03:17:12;;;;;;;20.02;18.70;;;;;;;10.77;63.86;99527.78;4975878;28;20109;-78
2022/11/23 03:19:37;;;;;;;19.38;18.10;;;;;;;10.77;63.59;99522.38;4974540;28;20027;-78
2022/11/23 03:22:03;;;;;;;18.50;17.33;;;;;;;10.78;63.71;99527.50;4958361;28;20030;-78
2022/11/23 03:24:28;;;;;;;18.60;17.42;;;;;;;10.77;63.60;99525.06;4975415;28;20026;-75
2022/11/23 03:26:54;;;;;;;18.45;17.05;;;;;;;10.78;63.61;99523.97;4976196;28;20044;-76
2022/11/23 03:29:21;;;;;;;20.30;19.08;;;;;;;10.79;63.50;99515.63;4990775;28;20031;-75
2022/11/23 03:31:46;;;;;;;20.65;19.35;;;;;;;10.77;63.71;99516.97;4975269;28;20061;-77
2022/11/23 03:34:12;;;;;;;21.85;20.23;;;;;;;10.78;63.59;99526.69;4975278;28;20101;-78
2022/11/23 03:36:37;;;;;;;19.73;18.42;;;;;;;10.79;63.63;99520.22;4973996;28;20037;-78
2022/11/23 03:39:02;;;;;;;18.48;17.13;;;;;;;10.78;63.58;99510.47;4975121;28;20047;-76
2022/11/23 03:41:28;;;;;;;18.20;17.00;;;;;;;10.78;63.84;99516.69;4974204;28;20031;-77
2022/11/23 03:43:53;;;;;;;18.92;17.67;;;;;;;10.78;63.70;99513.97;4973959;28;20034;-77
2022/11/23 03:46:18;;;;;;;19.85;18.25;;;;;;;10.79;63.80;99523.72;4974979;28;20022;-77
2022/11/23 03:48:44;;;;;;;18.48;17.33;;;;;;;10.80;63.69;99524.53;4973913;28;20042;-77
2022/11/23 03:51:09;;;;;;;21.45;19.95;;;;;;;10.79;63.57;99529.13;4974033;28;20046;-76
2022/11/23 03:53:34;;;;;;;20.60;19.15;;;;;;;10.81;63.72;99526.16;4974961;28;20070;-75
2022/11/23 03:56:00;;;;;;;19.27;18.27;;;;;;;10.81;63.72;99528.88;4975777;28;20363;-75
2022/11/23 03:58:25;;;;;;;19.08;17.88;;;;;;;10.81;63.66;99524.25;4973880;28;20027;-75
2022/11/23 04:00:51;;;;;;;19.30;17.88;;;;;;;10.82;63.67;99530.47;4990384;28;20031;-75
2022/11/23 04:03:16;;;;;;;19.45;18.33;;;;;;;10.81;63.80;99526.97;4975271;28;20031;-74
2022/11/23 04:05:42;;;;;;;19.10;17.90;;;;;;;10.81;63.41;99524.25;4975234;28;20118;-74
2022/11/23 04:08:08;;;;;;;19.85;18.65;;;;;;;10.82;63.58;99520.47;4975038;28;20030;-75
2022/11/23 04:10:34;;;;;;;18.08;17.08;;;;;;;10.82;63.55;99527.75;4973796;28;20034;-75
2022/11/23 04:12:59;;;;;;;19.10;18.00;;;;;;;10.82;63.85;99531.28;4989811;28;20422;-76
2022/11/23 04:15:24;;;;;;;20.60;19.30;;;;;;;10.82;63.73;99525.06;4974952;28;20035;-75
2022/11/23 04:17:50;;;;;;;18.23;17.23;;;;;;;10.82;63.68;99533.16;4975149;28;20023;-75
2022/11/23 04:20:15;;;;;;;19.60;18.35;;;;;;;10.82;63.71;99525.88;4974894;28;20106;-75
2022/11/23 04:22:41;;;;;;;19.95;18.42;;;;;;;10.83;63.64;99529.38;4989303;28;20027;-75
2022/11/23 04:25:06;;;;;;;19.25;17.73;;;;;;;10.83;63.77;99534.78;4975486;28;20422;-74
2022/11/23 04:27:32;;;;;;;18.02;17.02;;;;;;;10.83;63.57;99537.47;4974772;28;20432;-74
2022/11/23 04:29:57;;;;;;;19.23;18.10;;;;;;;10.83;63.53;99534.78;4975036;28;20035;-75
2022/11/23 04:32:23;;;;;;;19.95;18.73;;;;;;;10.83;63.47;99534.78;4973488;28;20031;-74
2022/11/23 04:34:48;;;;;;;20.25;18.85;;;;;;;10.83;63.65;99535.59;4974776;28;20089;-75
2022/11/23 04:37:13;;;;;;;19.05;17.77;;;;;;;10.83;63.46;99529.38;4974677;28;20026;-75
2022/11/23 04:39:41;;;;;;;18.95;17.85;;;;;;;10.83;63.39;99530.22;4974763;28;20369;-75
2022/11/23 04:42:09;;;;;;;20.17;19.02;;;;;;;10.83;63.80;99532.91;4989457;28;20117;-75
2022/11/23 04:44:35;;;;;;;17.63;16.42;;;;;;;10.85;63.58;99531.81;4974509;28;20031;-75
2022/11/23 04:47:00;;;;;;;19.38;17.92;;;;;;;10.84;63.61;99531.00;4989290;28;20042;-75
2022/11/23 04:49:26;;;;;;;20.45;18.95;;;;;;;10.83;63.68;99524.81;4989448;28;20031;-75
2022/11/23 04:51:51;;;;;;;20.48;19.00;;;;;;;10.84;63.69;99528.31;4974854;28;20062;-76
2022/11/23 04:54:16;;;;;;;20.20;18.52;;;;;;;10.83;63.40;99530.22;4974709;28;20443;-75
2022/11/23 04:56:42;;;;;;;20.02;18.52;;;;;;;10.85;63.67;99529.91;4974276;28;20022;-75
2022/11/23 04:59:07;;;;;;;19.42;18.13;;;;;;;10.85;63.80;99511.00;4974484;28;20054;-76
2022/11/23 05:01:32;;;;;;;19.25;17.95;;;;;;;10.85;63.61;99521.81;4974768;28;20027;-75
2022/11/23 05:03:58;;;;;;;18.33;17.23;;;;;;;10.85;63.78;99523.72;4973091;28;20085;-75
2022/11/23 05:06:24;;;;;;;19.08;17.98;;;;;;;10.85;63.61;99524.50;4974359;28;20027;-75
2022/11/23 05:08:49;;;;;;;18.40;17.20;;;;;;;10.86;63.69;99518.03;4974445;28;20081;-75
2022/11/23 05:11:15;;;;;;;19.15;17.92;;;;;;;10.86;63.53;99522.63;4989316;28;20039;-75
2022/11/23 05:13:40;;;;;;;18.15;17.15;;;;;;;10.85;63.81;99515.59;4974893;28;20031;-75
2022/11/23 05:16:06;;;;;;;19.70;18.50;;;;;;;10.86;63.63;99514.50;4975247;28;20106;-75
2022/11/23 05:18:31;;;;;;;19.63;18.42;;;;;;;10.85;63.70;99513.69;4989936;28;20033;-74
2022/11/23 05:20:57;;;;;;;18.90;17.58;;;;;;;10.86;63.60;99514.50;4974336;28;20054;-75
2022/11/23 05:23:22;;;;;;;21.40;20.05;;;;;;;10.86;63.64;99514.50;4973958;28;20054;-75
2022/11/23 05:25:47;;;;;;;20.20;18.60;;;;;;;10.87;63.69;99516.94;4989242;28;20030;-75
2022/11/23 05:28:19;;;;;;;18.92;17.60;;;;;;;10.86;63.54;99514.50;4974238;28;20035;-74
2022/11/23 05:30:44;;;;;;;18.33;17.13;;;;;;;10.86;63.54;99514.50;4974298;28;20061;-74
2022/11/23 05:33:10;;;;;;;18.33;17.33;;;;;;;10.86;63.59;99517.22;4973910;28;20069;-74
2022/11/23 05:35:35;;;;;;;19.98;18.67;;;;;;;10.86;63.60;99517.22;4976720;28;20371;-75
2022/11/23 05:38:01;;;;;;;18.80;17.80;;;;;;;10.86;63.78;99514.50;4992653;28;20030;-75
2022/11/23 05:40:26;;;;;;;20.95;19.10;;;;;;;10.87;63.52;99516.16;4992615;28;20055;-74
2022/11/23 05:42:58;;;;;;;19.17;18.05;;;;;;;10.86;63.55;99519.91;4977551;28;20030;-74
2022/11/23 05:45:25;;;;;;;20.10;18.70;;;;;;;10.86;63.42;99523.44;4977145;28;20027;-74
2022/11/23 05:47:52;;;;;;;18.15;17.02;;;;;;;10.86;63.64;99519.91;4977255;28;20033;-74
2022/11/23 05:50:19;;;;;;;18.75;17.25;;;;;;;10.87;63.68;99525.06;4977442;28;20034;-76
2022/11/23 05:52:44;;;;;;;19.98;18.40;;;;;;;10.87;63.58;99532.34;4977260;28;20473;-74
2022/11/23 05:55:10;;;;;;;18.30;17.27;;;;;;;10.86;63.53;99523.44;4977570;28;20122;-75
2022/11/23 05:57:35;;;;;;;20.75;19.25;;;;;;;10.87;63.54;99526.94;4977283;28;20035;-75
2022/11/23 06:00:02;;;;;;;18.80;17.80;;;;;;;10.86;63.35;99530.72;4977563;28;20034;-75
2022/11/23 06:02:27;;;;;;;19.88;18.42;;;;;;;10.86;63.63;99523.44;4977419;28;20061;-74
2022/11/23 06:04:52;;;;;;;20.40;19.10;;;;;;;10.86;63.51;99531.56;4975971;28;20069;-74
2022/11/23 06:07:18;;;;;;;18.98;17.55;;;;;;;10.86;63.14;99531.56;4977120;28;20023;-75
2022/11/23 06:09:43;;;;;;;20.58;19.38;;;;;;;10.86;63.43;99528.84;4992075;28;20026;-74
2022/11/23 06:12:08;;;;;;;18.60;17.50;;;;;;;10.86;63.62;99525.31;4991683;28;20030;-75
2022/11/23 06:14:34;;;;;;;20.63;18.98;;;;;;;10.85;63.40;99532.63;4976927;28;20031;-74
2022/11/23 06:16:59;;;;;;;19.10;18.00;;;;;;;10.85;63.57;99527.22;4975448;28;20030;-74
2022/11/23 06:19:25;;;;;;;19.10;17.52;;;;;;;10.86;63.53;99536.13;4976807;28;20043;-74
2022/11/23 06:21:50;;;;;;;19.90;18.15;;;;;;;10.86;63.29;99530.72;4991804;28;20027;-76
2022/11/23 06:24:16;;;;;;;18.40;17.02;;;;;;;10.86;63.47;99536.13;4976771;28;20110;-75
2022/11/23 06:26:41;;;;;;;20.60;19.05;;;;;;;10.85;63.23;99535.31;4977026;28;20027;-74
2022/11/23 06:29:06;;;;;;;19.63;18.52;;;;;;;10.85;63.53;99534.50;4991629;28;20035;-75
2022/11/23 06:31:32;;;;;;;20.23;18.65;;;;;;;10.85;63.62;99537.22;4976891;28;20033;-75
2022/11/23 06:33:57;;;;;;;19.67;18.30;;;;;;;10.85;63.34;99538.03;4991648;28;20065;-74
2022/11/23 06:36:22;;;;;;;19.83;18.45;;;;;;;10.85;63.46;99529.09;4976683;28;20042;-75
2022/11/23 06:38:48;;;;;;;21.52;20.02;;;;;;;10.85;63.45;99539.91;4976333;28;20512;-74
2022/11/23 06:41:14;;;;;;;19.83;18.52;;;;;;;10.85;63.49;99535.31;4975386;28;20430;-74
2022/11/23 06:43:40;;;;;;;21.30;19.75;;;;;;;10.83;63.47;99538.31;4976353;28;20043;-74
2022/11/23 06:46:06;;;;;;;19.55;18.45;;;;;;;10.85;63.47;99534.50;4976598;28;20041;-75
2022/11/23 06:48:32;;;;;;;20.25;18.83;;;;;;;10.84;63.34;99536.41;4976354;28;20057;-75
2022/11/23 06:50:59;;;;;;;20.25;18.60;;;;;;;10.83;63.60;99543.72;4976235;28;20019;-75
2022/11/23 06:53:25;;;;;;;20.13;19.08;;;;;;;10.83;63.41;99549.13;4976627;28;20027;-74
2022/11/23 06:55:51;;;;;;;19.52;18.42;;;;;;;10.84;63.46;99549.91;4976107;28;20027;-74
2022/11/23 06:58:16;;;;;;;18.02;17.02;;;;;;;10.83;63.38;99549.13;4975794;28;20034;-74
2022/11/23 07:00:41;;;;;;;19.27;18.08;;;;;;;10.83;63.45;99551.81;4976157;28;20473;-75
2022/11/23 07:03:19;;;;;;;19.30;17.90;;;;;;;10.83;63.66;99559.09;4975839;28;20027;-74
2022/11/23 07:05:45;;;;;;;20.80;19.33;;;;;;;10.82;63.59;99565.59;4976529;28;20062;-76
2022/11/23 07:08:10;;;;;;;20.70;19.27;;;;;;;10.83;63.57;99564.50;4974697;28;20455;-74
2022/11/23 07:10:36;;;;;;;19.40;18.10;;;;;;;10.82;63.44;99571.78;4975317;28;20123;-74
2022/11/23 07:13:04;;;;;;;17.67;16.67;;;;;;;10.81;63.29;99570.19;4976401;28;20035;-74
2022/11/23 07:15:29;;;;;;;18.20;17.13;;;;;;;10.82;63.37;99573.69;4976282;28;20473;-74
2022/11/23 07:17:54;;;;;;;18.55;17.15;;;;;;;10.81;63.75;99583.69;4990444;28;20031;-74
2022/11/23 07:20:20;;;;;;;19.95;18.30;;;;;;;10.81;63.48;99578.28;4974962;28;20473;-74
2022/11/23 07:22:45;;;;;;;20.02;18.63;;;;;;;10.81;63.44;99585.59;4975941;28;20443;-74
2022/11/23 07:25:15;;;;;;;19.45;18.05;;;;;;;10.81;63.33;99583.69;4975537;28;20038;-74
2022/11/23 07:27:41;;;;;;;20.70;19.10;;;;;;;10.81;63.44;99594.50;4975610;28;20082;-75
2022/11/23 07:30:07;;;;;;;19.65;18.35;;;;;;;10.81;63.32;99593.69;4974945;28;20039;-73
2022/11/23 07:32:32;;;;;;;19.50;17.95;;;;;;;10.80;63.36;99597.47;4975946;28;20035;-75
2022/11/23 07:34:57;;;;;;;19.42;18.05;;;;;;;10.80;63.38;99602.84;4975331;28;20042;-75
2022/11/23 07:37:23;;;;;;;18.77;17.42;;;;;;;10.81;63.36;99604.50;4975287;28;20118;-74
2022/11/23 07:39:48;;;;;;;20.80;19.40;;;;;;;10.79;63.69;99604.75;4974392;28;20090;-75
2022/11/23 07:42:14;;;;;;;19.90;18.52;;;;;;;10.80;63.38;99617.16;4973817;28;20534;-74
2022/11/23 07:44:39;;;;;;;23.02;21.38;;;;;;;10.79;63.37;99610.16;4974641;28;20442;-75
2022/11/23 07:47:04;;;;;;;19.25;18.15;;;;;;;10.79;63.42;99615.56;4975154;28;20534;-75
2022/11/23 07:49:30;;;;;;;20.60;19.05;;;;;;;10.78;63.51;99605.81;4973572;28;20065;-75
2022/11/23 07:51:55;;;;;;;19.13;18.08;;;;;;;10.79;63.46;99617.47;4989341;28;20039;-75
2022/11/23 07:54:20;;;;;;;19.83;18.60;;;;;;;10.79;63.35;99626.38;4974646;28;20141;-75
2022/11/23 07:56:46;;;;;;;22.25;20.23;;;;;;;10.78;63.36;99616.63;4974683;28;20053;-74
2022/11/23 07:59:11;;;;;;;19.25;17.95;;;;;;;10.79;63.38;99620.16;4974821;28;20399;-76
2022/11/23 08:01:37;;;;;;;21.27;19.67;;;;;;;10.78;63.23;99621.22;4989929;28;20039;-74
2022/11/23 08:04:03;;;;;;;20.17;18.42;;;;;;;10.77;63.33;99623.13;4974466;28;20518;-74
2022/11/23 08:06:28;;;;;;;20.63;19.00;;;;;;;10.78;63.45;99621.22;4974102;28;20042;-74
2022/11/23 08:08:54;;;;;;;20.00;18.80;;;;;;;10.78;63.30;99626.63;4974451;28;20034;-75
2022/11/23 08:11:21;;;;;;;18.83;17.25;;;;;;;10.76;63.33;99621.50;4974439;28;20494;-75
2022/11/23 08:13:46;;;;;;;19.83;18.42;;;;;;;10.76;63.32;99626.91;4974503;28;20045;-75
2022/11/23 08:16:12;;;;;;;19.25;18.05;;;;;;;10.77;63.56;99633.13;4974413;28;20042;-75
2022/11/23 08:18:37;;;;;;;20.15;18.88;;;;;;;10.75;63.35;99633.38;4975115;28;20383;-74
2022/11/23 08:21:03;;;;;;;18.20;16.98;;;;;;;10.75;63.33;99625.28;4974995;28;20114;-73
2022/11/23 08:23:29;;;;;;;18.48;17.17;;;;;;;10.75;63.56;99638.78;4974166;28;20372;-73
2022/11/23 08:25:54;;;;;;;18.20;17.05;;;;;;;10.74;63.52;99637.19;4973216;28;20023;-73
2022/11/23 08:28:20;;;;;;;19.73;18.52;;;;;;;10.75;63.20;99635.28;4974670;28;20031;-72
2022/11/23 08:30:46;;;;;;;20.33;18.92;;;;;;;10.73;63.21;99635.53;4974380;28;20035;-73
2022/11/23 08:33:12;;;;;;;19.58;18.02;;;;;;;10.74;63.44;99639.06;4974465;28;20038;-73
2022/11/23 08:35:39;;;;;;;18.05;16.90;;;;;;;10.74;63.39;99641.78;4974814;28;20035;-73
2022/11/23 08:38:05;;;;;;;18.50;16.92;;;;;;;10.73;63.34;99629.31;4989240;28;20060;-73
2022/11/23 08:40:32;;;;;;;19.23;17.42;;;;;;;10.71;63.25;99626.91;4972760;28;20526;-73
2022/11/23 08:42:57;;;;;;;17.85;16.75;;;;;;;10.72;63.30;99622.31;4974214;28;20042;-73
2022/11/23 08:45:23;;;;;;;18.90;17.63;;;;;;;10.72;63.15;99619.63;4974285;28;20030;-73
2022/11/23 08:47:49;;;;;;;20.13;18.40;;;;;;;10.71;63.23;99618.81;4974210;28;20162;-73
2022/11/23 08:50:15;;;;;;;19.48;18.08;;;;;;;10.71;63.14;99626.09;4974083;28;20039;-73
2022/11/23 08:52:40;;;;;;;20.67;19.30;;;;;;;10.70;63.32;99625.28;4973012;28;20038;-73
2022/11/23 08:55:06;;;;;;;18.17;17.05;;;;;;;10.68;63.33;99622.03;4974251;28;20471;-74
2022/11/23 08:57:31;;;;;;;19.15;17.48;;;;;;;10.69;63.05;99612.88;4973293;28;20046;-73
2022/11/23 08:59:57;;;;;;;18.55;17.35;;;;;;;10.69;63.23;99620.16;4974091;28;20114;-74
2022/11/23 09:02:22;;;;;;;20.83;18.90;;;;;;;10.67;63.24;99620.44;4989047;28;20085;-74
2022/11/23 09:04:48;;;;;;;22.63;20.85;;;;;;;10.67;63.12;99615.03;4974207;28;20045;-71
2022/11/23 09:07:13;;;;;;;17.92;16.92;;;;;;;10.68;63.31;99605.03;4974654;28;20066;-74
2022/11/23 09:09:39;;;;;;;19.00;17.65;;;;;;;10.68;63.25;99613.13;4975609;28;20031;-76
2022/11/23 09:12:04;;;;;;;18.88;17.00;;;;;;;10.67;63.11;99603.41;4977777;28;20046;-76
2022/11/23 09:14:30;;;;;;;20.35;18.58;;;;;;;10.66;63.17;99608.00;4977723;28;20090;-73
2022/11/23 09:16:55;;;;;;;20.88;19.20;;;;;;;10.67;63.15;99606.13;4992349;28;20088;-74
2022/11/23 09:19:22;;;;;;;19.35;17.85;;;;;;;10.66;63.04;99602.63;4977089;28;20063;-74
2022/11/23 09:21:47;;;;;;;19.17;17.70;;;;;;;10.65;63.20;99598.28;4977441;28;20498;-74
2022/11/23 09:24:13;;;;;;;18.40;16.92;;;;;;;10.65;62.89;99594.78;4977112;28;20031;-74
2022/11/23 09:26:39;;;;;;;18.60;17.33;;;;;;;10.64;63.22;99583.16;4976080;28;20058;-74
2022/11/23 09:29:06;;;;;;;18.58;17.38;;;;;;;10.64;63.44;99587.75;4977605;28;20026;-73
2022/11/23 09:31:31;;;;;;;19.52;17.55;;;;;;;10.64;63.23;99596.66;4977004;28;20089;-74
2022/11/23 09:33:57;;;;;;;19.48;18.08;;;;;;;10.63;63.22;99584.22;4977205;28;20418;-74
2022/11/23 09:36:22;;;;;;;21.02;19.45;;;;;;;10.63;63.27;99584.22;4977214;28;20046;-73
2022/11/23 09:38:49;;;;;;;21.90;20.42;;;;;;;10.62;63.44;99563.72;4976951;28;20485;-74
2022/11/23 09:41:48;;;;;;;19.38;17.88;;;;;;;10.62;63.06;99569.13;4976201;28;20089;-74
2022/11/23 09:44:22;;;;;;;18.10;16.90;;;;;;;10.61;63.16;99559.41;4977080;28;20097;-73
2022/11/23 09:47:04;;;;;;;21.17;19.38;;;;;;;10.59;63.20;99554.28;4977491;28;20054;-75
2022/11/23 09:49:55;;;;;;;19.67;18.27;;;;;;;10.60;63.35;99557.78;4976918;28;20035;-74
2022/11/23 09:52:23;;;;;;;21.15;19.33;;;;;;;10.59;63.15;99556.97;4946908;28;20085;-74
2022/11/23 09:54:56;;;;;;;20.13;18.60;;;;;;;10.58;63.02;99557.22;4976458;28;20042;-74
2022/11/23 09:57:29;;;;;;;19.58;17.80;;;;;;;10.59;63.16;99556.16;4976794;28;20046;-74
2022/11/23 10:00:14;;;;;;;19.77;18.17;;;;;;;10.58;63.13;99546.44;4977230;28;20031;-74
2022/11/23 10:02:40;;;;;;;17.80;16.75;;;;;;;10.58;63.05;99552.66;4977548;28;20141;-74
2022/11/23 10:05:06;;;;;;;19.02;17.50;;;;;;;10.58;63.10;99554.53;4976520;28;20031;-74
2022/11/23 10:07:47;;;;;;;19.58;18.08;;;;;;;10.58;62.98;99558.06;4977413;28;20038;-73
2022/11/23 10:10:12;;;;;;;18.70;17.55;;;;;;;10.58;63.30;99549.13;4977032;28;20030;-74
2022/11/23 10:13:10;;;;;;;19.63;17.92;;;;;;;10.58;62.95;99559.94;4976649;28;20034;-75
2022/11/23 10:15:59;;;;;;;19.23;18.08;;;;;;;10.57;63.09;99555.63;4959438;28;20468;-74
2022/11/23 10:18:56;;;;;;;18.50;17.40;;;;;;;10.57;63.07;99558.31;4991569;28;20151;-73
2022/11/23 10:21:31;;;;;;;19.10;17.90;;;;;;;10.55;63.03;99563.97;4977146;28;20054;-74
2022/11/23 10:24:18;;;;;;;19.75;18.52;;;;;;;10.56;62.94;99554.00;4976717;28;20162;-73
2022/11/23 10:26:45;;;;;;;19.58;18.17;;;;;;;10.55;62.76;99555.88;4976867;28;20367;-73
2022/11/23 10:29:24;;;;;;;18.33;17.08;;;;;;;10.56;62.98;99556.72;4976260;28;20463;-74
2022/11/23 10:31:50;;;;;;;;;;;;;;;10.56;62.87;99554.00;4992050;28;20466;-73
2022/11/23 10:34:25;;;;;;;18.85;17.42;;;;;;;10.55;63.08;99553.19;4976403;28;19937;-75
2022/11/23 10:36:51;;;;;;;19.58;18.15;;;;;;;10.54;63.01;99548.06;4976824;28;20030;-75
2022/11/23 10:39:24;;;;;;;17.23;16.23;;;;;;;10.54;63.07;99554.28;4976588;28;20054;-73
2022/11/23 10:41:50;;;;;;;19.00;17.75;;;;;;;10.55;63.08;99542.38;4975890;28;20386;-74
2022/11/23 10:44:30;;;;;;;18.17;16.73;;;;;;;10.56;63.12;99535.13;4991200;28;20122;-74
2022/11/23 10:46:55;;;;;;;19.95;18.65;;;;;;;10.56;62.89;99537.81;4976644;28;20030;-73
2022/11/23 10:49:25;;;;;;;18.33;17.02;;;;;;;10.56;63.12;99529.72;4976018;28;20038;-73
2022/11/23 10:51:58;;;;;;;18.52;17.17;;;;;;;10.55;63.20;99528.88;4976405;28;20041;-75
2022/11/23 10:54:28;;;;;;;18.90;17.80;;;;;;;10.56;62.89;99530.53;4975497;28;20065;-73
2022/11/23 10:56:54;;;;;;;19.63;18.00;;;;;;;10.56;62.92;99522.41;4975891;28;20034;-74
2022/11/23 10:59:37;;;;;;;19.63;18.25;;;;;;;10.57;62.98;99524.03;4975900;28;20034;-73
2022/11/23 11:02:19;;;;;;;18.85;17.35;;;;;;;10.57;63.07;99512.41;4990754;28;20543;-72
2022/11/23 11:04:46;;;;;;;18.23;16.92;;;;;;;10.56;62.88;99525.13;4975577;28;20026;-73
2022/11/23 11:07:11;;;;;;;18.52;17.23;;;;;;;10.56;63.12;99508.13;4975566;28;20427;-71
2022/11/23 11:09:37;;;;;;;18.75;17.65;;;;;;;10.56;63.02;99502.72;4975942;28;20034;-72
2022/11/23 11:12:03;;;;;;;20.30;18.95;;;;;;;10.56;63.10;99489.22;4975225;28;20117;-73
2022/11/23 11:14:28;;;;;;;19.00;17.85;;;;;;;10.56;63.11;99487.31;4975801;28;20102;-72
2022/11/23 11:16:56;;;;;;;18.48;17.20;;;;;;;10.57;63.26;99480.81;4975455;28;20043;-72